sensor_id;sensor_type;location;lat;lon;timestamp;P1;durP1;ratioP1;P2;durP2;ratioP2
42972;SDS011;28610;51.214;6.962;2023-02-15T00:00:49;44.30;;;22.70;;
42972;SDS011;28610;51.214;6.962;2023-02-15T00:03:38;46.23;;;21.80;;
42972;SDS011;28610;51.214;6.962;2023-02-15T00:06:25;43.13;;;21.43;;
42972;SDS011;28610;51.214;6.962;2023-02-15T00:09:11;45.60;;;22.03;;
42972;SDS011;28610;51.214;6.962;2023-02-15T00:11:57;46.63;;;21.40;;
42972;SDS011;28610;51.214;6.962;2023-02-15T00:14:42;48.80;;;22.43;;
42972;SDS011;28610;51.214;6.962;2023-02-15T00:17:28;45.07;;;21.80;;
42972;SDS011;28610;51.214;6.962;2023-02-15T00:20:14;43.30;;;21.57;;
42972;SDS011;28610;51.214;6.962;2023-02-15T00:23:01;43.83;;;21.57;;
42972;SDS011;28610;51.214;6.962;2023-02-15T00:25:46;43.63;;;22.63;;
42972;SDS011;28610;51.214;6.962;2023-02-15T00:28:32;43.20;;;21.77;;
42972;SDS011;28610;51.214;6.962;2023-02-15T00:31:18;44.03;;;22.20;;
42972;SDS011;28610;51.214;6.962;2023-02-15T00:34:03;45.63;;;22.83;;
42972;SDS011;28610;51.214;6.962;2023-02-15T00:36:49;45.17;;;22.53;;
42972;SDS011;28610;51.214;6.962;2023-02-15T00:39:37;45.83;;;22.60;;
42972;SDS011;28610;51.214;6.962;2023-02-15T00:42:23;48.17;;;23.13;;
42972;SDS011;28610;51.214;6.962;2023-02-15T00:45:08;47.03;;;22.23;;
42972;SDS011;28610;51.214;6.962;2023-02-15T00:47:54;45.60;;;22.57;;
42972;SDS011;28610;51.214;6.962;2023-02-15T00:50:39;46.70;;;22.93;;
42972;SDS011;28610;51.214;6.962;2023-02-15T00:53:25;44.97;;;22.17;;
42972;SDS011;28610;51.214;6.962;2023-02-15T00:56:13;45.10;;;21.83;;
42972;SDS011;28610;51.214;6.962;2023-02-15T00:58:58;47.87;;;23.73;;
42972;SDS011;28610;51.214;6.962;2023-02-15T01:01:44;50.33;;;23.67;;
42972;SDS011;28610;51.214;6.962;2023-02-15T01:04:29;46.33;;;23.10;;
42972;SDS011;28610;51.214;6.962;2023-02-15T01:07:15;46.07;;;23.37;;
42972;SDS011;28610;51.214;6.962;2023-02-15T01:10:00;49.90;;;23.17;;
42972;SDS011;28610;51.214;6.962;2023-02-15T01:12:47;44.90;;;23.17;;
42972;SDS011;28610;51.214;6.962;2023-02-15T01:15:33;49.80;;;24.53;;
42972;SDS011;28610;51.214;6.962;2023-02-15T01:18:19;47.10;;;24.30;;
42972;SDS011;28610;51.214;6.962;2023-02-15T01:21:09;49.37;;;23.83;;
42972;SDS011;28610;51.214;6.962;2023-02-15T01:23:55;46.23;;;22.83;;
42972;SDS011;28610;51.214;6.962;2023-02-15T01:26:40;50.40;;;24.13;;
42972;SDS011;28610;51.214;6.962;2023-02-15T01:29:27;49.20;;;23.70;;
42972;SDS011;28610;51.214;6.962;2023-02-15T01:32:13;48.03;;;23.17;;
42972;SDS011;28610;51.214;6.962;2023-02-15T01:34:58;53.93;;;23.93;;
42972;SDS011;28610;51.214;6.962;2023-02-15T01:37:44;50.53;;;24.97;;
42972;SDS011;28610;51.214;6.962;2023-02-15T01:40:31;45.77;;;22.67;;
42972;SDS011;28610;51.214;6.962;2023-02-15T01:43:16;47.93;;;22.93;;
42972;SDS011;28610;51.214;6.962;2023-02-15T01:46:03;50.20;;;24.03;;
42972;SDS011;28610;51.214;6.962;2023-02-15T01:48:51;47.73;;;22.97;;
42972;SDS011;28610;51.214;6.962;2023-02-15T01:51:38;48.23;;;23.67;;
42972;SDS011;28610;51.214;6.962;2023-02-15T01:54:27;48.03;;;23.87;;
42972;SDS011;28610;51.214;6.962;2023-02-15T01:57:16;50.60;;;24.53;;
42972;SDS011;28610;51.214;6.962;2023-02-15T02:00:03;49.93;;;24.27;;
42972;SDS011;28610;51.214;6.962;2023-02-15T02:02:51;49.17;;;23.67;;
42972;SDS011;28610;51.214;6.962;2023-02-15T02:05:39;48.93;;;23.57;;
42972;SDS011;28610;51.214;6.962;2023-02-15T02:08:25;48.03;;;24.20;;
42972;SDS011;28610;51.214;6.962;2023-02-15T02:11:11;50.17;;;24.57;;
42972;SDS011;28610;51.214;6.962;2023-02-15T02:13:57;55.47;;;25.23;;
42972;SDS011;28610;51.214;6.962;2023-02-15T02:16:45;51.93;;;24.63;;
42972;SDS011;28610;51.214;6.962;2023-02-15T02:22:46;50.97;;;24.87;;
42972;SDS011;28610;51.214;6.962;2023-02-15T02:25:47;49.70;;;24.03;;
42972;SDS011;28610;51.214;6.962;2023-02-15T02:31:48;54.17;;;24.90;;
42972;SDS011;28610;51.214;6.962;2023-02-15T02:34:44;47.00;;;24.23;;
42972;SDS011;28610;51.214;6.962;2023-02-15T02:37:35;51.53;;;24.43;;
42972;SDS011;28610;51.214;6.962;2023-02-15T02:40:24;50.40;;;24.80;;
42972;SDS011;28610;51.214;6.962;2023-02-15T02:43:15;50.97;;;24.20;;
42972;SDS011;28610;51.214;6.962;2023-02-15T02:46:02;52.63;;;24.33;;
42972;SDS011;28610;51.214;6.962;2023-02-15T02:48:50;48.30;;;24.13;;
42972;SDS011;28610;51.214;6.962;2023-02-15T02:51:38;52.17;;;25.00;;
42972;SDS011;28610;51.214;6.962;2023-02-15T02:54:23;53.13;;;25.53;;
42972;SDS011;28610;51.214;6.962;2023-02-15T02:57:09;57.93;;;26.70;;
42972;SDS011;28610;51.214;6.962;2023-02-15T02:59:55;50.17;;;23.53;;
42972;SDS011;28610;51.214;6.962;2023-02-15T03:02:43;51.20;;;25.37;;
42972;SDS011;28610;51.214;6.962;2023-02-15T03:05:30;55.57;;;25.57;;
42972;SDS011;28610;51.214;6.962;2023-02-15T03:08:19;52.03;;;24.87;;
42972;SDS011;28610;51.214;6.962;2023-02-15T03:13:54;51.20;;;25.23;;
42972;SDS011;28610;51.214;6.962;2023-02-15T03:16:40;50.70;;;24.20;;
42972;SDS011;28610;51.214;6.962;2023-02-15T03:19:27;51.00;;;25.27;;
42972;SDS011;28610;51.214;6.962;2023-02-15T03:22:14;52.47;;;24.87;;
42972;SDS011;28610;51.214;6.962;2023-02-15T03:25:06;53.97;;;26.00;;
42972;SDS011;28610;51.214;6.962;2023-02-15T03:27:54;52.30;;;24.77;;
42972;SDS011;28610;51.214;6.962;2023-02-15T03:30:42;53.20;;;24.83;;
42972;SDS011;28610;51.214;6.962;2023-02-15T03:33:29;52.00;;;24.50;;
42972;SDS011;28610;51.214;6.962;2023-02-15T03:36:16;52.33;;;25.00;;
42972;SDS011;28610;51.214;6.962;2023-02-15T03:39:05;54.33;;;25.53;;
42972;SDS011;28610;51.214;6.962;2023-02-15T03:41:56;52.70;;;24.87;;
42972;SDS011;28610;51.214;6.962;2023-02-15T03:44:46;57.17;;;25.13;;
42972;SDS011;28610;51.214;6.962;2023-02-15T03:47:33;57.40;;;26.23;;
42972;SDS011;28610;51.214;6.962;2023-02-15T03:50:21;57.03;;;25.93;;
42972;SDS011;28610;51.214;6.962;2023-02-15T03:53:28;51.43;;;24.50;;
42972;SDS011;28610;51.214;6.962;2023-02-15T03:56:13;53.60;;;25.87;;
42972;SDS011;28610;51.214;6.962;2023-02-15T03:59:00;50.50;;;24.93;;
42972;SDS011;28610;51.214;6.962;2023-02-15T04:02:05;50.23;;;24.80;;
42972;SDS011;28610;51.214;6.962;2023-02-15T04:04:55;57.17;;;25.93;;
42972;SDS011;28610;51.214;6.962;2023-02-15T04:07:41;52.30;;;25.20;;
42972;SDS011;28610;51.214;6.962;2023-02-15T04:10:27;53.60;;;25.30;;
42972;SDS011;28610;51.214;6.962;2023-02-15T04:13:31;56.97;;;25.83;;
42972;SDS011;28610;51.214;6.962;2023-02-15T04:16:18;53.93;;;26.17;;
42972;SDS011;28610;51.214;6.962;2023-02-15T04:19:02;58.00;;;26.00;;
42972;SDS011;28610;51.214;6.962;2023-02-15T04:22:06;55.70;;;26.13;;
42972;SDS011;28610;51.214;6.962;2023-02-15T04:25:09;52.10;;;25.13;;
42972;SDS011;28610;51.214;6.962;2023-02-15T04:27:56;55.37;;;26.83;;
42972;SDS011;28610;51.214;6.962;2023-02-15T04:30:41;53.93;;;25.90;;
42972;SDS011;28610;51.214;6.962;2023-02-15T04:33:28;61.90;;;26.53;;
42972;SDS011;28610;51.214;6.962;2023-02-15T04:36:14;57.83;;;26.70;;
42972;SDS011;28610;51.214;6.962;2023-02-15T04:38:59;55.93;;;25.10;;
42972;SDS011;28610;51.214;6.962;2023-02-15T04:41:45;56.00;;;25.70;;
42972;SDS011;28610;51.214;6.962;2023-02-15T04:44:31;53.53;;;24.73;;
42972;SDS011;28610;51.214;6.962;2023-02-15T04:47:16;54.23;;;26.03;;
42972;SDS011;28610;51.214;6.962;2023-02-15T04:50:04;57.27;;;26.10;;
42972;SDS011;28610;51.214;6.962;2023-02-15T04:52:50;60.70;;;26.80;;
42972;SDS011;28610;51.214;6.962;2023-02-15T04:55:36;58.27;;;26.23;;
42972;SDS011;28610;51.214;6.962;2023-02-15T04:58:21;54.70;;;26.33;;
42972;SDS011;28610;51.214;6.962;2023-02-15T05:01:07;56.40;;;26.47;;
42972;SDS011;28610;51.214;6.962;2023-02-15T05:03:53;54.97;;;26.90;;
42972;SDS011;28610;51.214;6.962;2023-02-15T05:06:39;56.00;;;26.27;;
42972;SDS011;28610;51.214;6.962;2023-02-15T05:09:25;59.80;;;27.27;;
42972;SDS011;28610;51.214;6.962;2023-02-15T05:12:10;62.33;;;27.20;;
42972;SDS011;28610;51.214;6.962;2023-02-15T05:14:56;55.00;;;25.27;;
42972;SDS011;28610;51.214;6.962;2023-02-15T05:17:42;57.13;;;25.60;;
42972;SDS011;28610;51.214;6.962;2023-02-15T05:20:27;55.27;;;26.40;;
42972;SDS011;28610;51.214;6.962;2023-02-15T05:23:14;54.30;;;25.27;;
42972;SDS011;28610;51.214;6.962;2023-02-15T05:26:00;56.77;;;25.80;;
42972;SDS011;28610;51.214;6.962;2023-02-15T05:29:03;52.03;;;24.53;;
42972;SDS011;28610;51.214;6.962;2023-02-15T05:31:49;51.93;;;24.63;;
42972;SDS011;28610;51.214;6.962;2023-02-15T05:34:35;52.83;;;25.30;;
42972;SDS011;28610;51.214;6.962;2023-02-15T05:37:21;54.50;;;24.77;;
42972;SDS011;28610;51.214;6.962;2023-02-15T05:40:08;61.57;;;26.63;;
42972;SDS011;28610;51.214;6.962;2023-02-15T05:42:54;59.00;;;26.33;;
42972;SDS011;28610;51.214;6.962;2023-02-15T05:45:39;60.20;;;26.00;;
42972;SDS011;28610;51.214;6.962;2023-02-15T05:48:26;53.90;;;25.57;;
42972;SDS011;28610;51.214;6.962;2023-02-15T05:51:12;56.67;;;25.40;;
42972;SDS011;28610;51.214;6.962;2023-02-15T05:53:59;56.37;;;25.77;;
42972;SDS011;28610;51.214;6.962;2023-02-15T05:56:46;56.17;;;26.47;;
42972;SDS011;28610;51.214;6.962;2023-02-15T05:59:31;57.03;;;26.43;;
42972;SDS011;28610;51.214;6.962;2023-02-15T06:02:17;58.47;;;26.40;;
42972;SDS011;28610;51.214;6.962;2023-02-15T06:05:02;53.33;;;25.63;;
42972;SDS011;28610;51.214;6.962;2023-02-15T06:07:48;56.43;;;25.77;;
42972;SDS011;28610;51.214;6.962;2023-02-15T06:10:34;53.40;;;25.80;;
42972;SDS011;28610;51.214;6.962;2023-02-15T06:13:21;53.83;;;25.70;;
42972;SDS011;28610;51.214;6.962;2023-02-15T06:16:07;55.83;;;24.87;;
42972;SDS011;28610;51.214;6.962;2023-02-15T06:18:52;54.20;;;24.50;;
42972;SDS011;28610;51.214;6.962;2023-02-15T06:21:38;55.27;;;25.93;;
42972;SDS011;28610;51.214;6.962;2023-02-15T06:24:23;54.07;;;24.50;;
42972;SDS011;28610;51.214;6.962;2023-02-15T06:27:08;53.70;;;25.30;;
42972;SDS011;28610;51.214;6.962;2023-02-15T06:29:56;53.87;;;24.83;;
42972;SDS011;28610;51.214;6.962;2023-02-15T06:32:42;52.33;;;24.13;;
42972;SDS011;28610;51.214;6.962;2023-02-15T06:35:27;51.50;;;24.30;;
42972;SDS011;28610;51.214;6.962;2023-02-15T06:38:13;50.00;;;25.00;;
42972;SDS011;28610;51.214;6.962;2023-02-15T06:40:59;48.00;;;23.83;;
42972;SDS011;28610;51.214;6.962;2023-02-15T06:43:44;53.63;;;24.30;;
42972;SDS011;28610;51.214;6.962;2023-02-15T06:46:31;52.77;;;25.03;;
42972;SDS011;28610;51.214;6.962;2023-02-15T06:49:16;51.13;;;24.00;;
42972;SDS011;28610;51.214;6.962;2023-02-15T06:52:02;53.40;;;25.57;;
42972;SDS011;28610;51.214;6.962;2023-02-15T06:54:48;57.00;;;25.70;;
42972;SDS011;28610;51.214;6.962;2023-02-15T06:57:33;57.10;;;26.63;;
42972;SDS011;28610;51.214;6.962;2023-02-15T07:00:20;54.83;;;25.37;;
42972;SDS011;28610;51.214;6.962;2023-02-15T07:03:07;55.53;;;24.73;;
42972;SDS011;28610;51.214;6.962;2023-02-15T07:05:54;58.03;;;26.90;;
42972;SDS011;28610;51.214;6.962;2023-02-15T07:08:39;72.20;;;32.13;;
42972;SDS011;28610;51.214;6.962;2023-02-15T07:11:26;58.47;;;26.60;;
42972;SDS011;28610;51.214;6.962;2023-02-15T07:14:29;53.47;;;24.93;;
42972;SDS011;28610;51.214;6.962;2023-02-15T07:17:15;54.33;;;24.63;;
42972;SDS011;28610;51.214;6.962;2023-02-15T07:20:02;56.47;;;25.50;;
42972;SDS011;28610;51.214;6.962;2023-02-15T07:22:48;52.70;;;24.23;;
42972;SDS011;28610;51.214;6.962;2023-02-15T07:25:33;51.43;;;24.77;;
42972;SDS011;28610;51.214;6.962;2023-02-15T07:28:19;53.50;;;23.73;;
42972;SDS011;28610;51.214;6.962;2023-02-15T07:31:05;51.27;;;23.70;;
42972;SDS011;28610;51.214;6.962;2023-02-15T07:33:51;50.47;;;24.30;;
42972;SDS011;28610;51.214;6.962;2023-02-15T07:36:38;51.40;;;24.50;;
42972;SDS011;28610;51.214;6.962;2023-02-15T07:39:23;46.53;;;21.60;;
42972;SDS011;28610;51.214;6.962;2023-02-15T07:42:09;50.97;;;22.83;;
42972;SDS011;28610;51.214;6.962;2023-02-15T07:44:55;48.87;;;23.17;;
42972;SDS011;28610;51.214;6.962;2023-02-15T07:47:40;48.00;;;22.77;;
42972;SDS011;28610;51.214;6.962;2023-02-15T07:50:27;43.83;;;21.23;;
42972;SDS011;28610;51.214;6.962;2023-02-15T07:53:14;45.73;;;22.27;;
42972;SDS011;28610;51.214;6.962;2023-02-15T07:56:00;43.40;;;21.70;;
42972;SDS011;28610;51.214;6.962;2023-02-15T07:58:46;39.97;;;21.23;;
42972;SDS011;28610;51.214;6.962;2023-02-15T08:01:39;42.13;;;20.70;;
42972;SDS011;28610;51.214;6.962;2023-02-15T08:04:24;40.50;;;20.77;;
42972;SDS011;28610;51.214;6.962;2023-02-15T08:07:10;38.20;;;20.53;;
42972;SDS011;28610;51.214;6.962;2023-02-15T08:09:57;42.73;;;20.20;;
42972;SDS011;28610;51.214;6.962;2023-02-15T08:12:43;42.07;;;18.90;;
42972;SDS011;28610;51.214;6.962;2023-02-15T08:15:28;42.03;;;20.93;;
42972;SDS011;28610;51.214;6.962;2023-02-15T08:18:15;38.50;;;18.57;;
42972;SDS011;28610;51.214;6.962;2023-02-15T08:21:01;40.30;;;19.33;;
42972;SDS011;28610;51.214;6.962;2023-02-15T08:23:48;41.37;;;19.77;;
42972;SDS011;28610;51.214;6.962;2023-02-15T08:26:35;36.00;;;19.50;;
42972;SDS011;28610;51.214;6.962;2023-02-15T08:29:22;35.27;;;18.63;;
42972;SDS011;28610;51.214;6.962;2023-02-15T08:32:09;35.70;;;18.40;;
42972;SDS011;28610;51.214;6.962;2023-02-15T08:34:56;38.80;;;19.80;;
42972;SDS011;28610;51.214;6.962;2023-02-15T08:37:41;35.77;;;18.33;;
42972;SDS011;28610;51.214;6.962;2023-02-15T08:40:28;36.50;;;19.33;;
42972;SDS011;28610;51.214;6.962;2023-02-15T08:43:16;36.40;;;19.23;;
42972;SDS011;28610;51.214;6.962;2023-02-15T08:46:01;36.33;;;18.47;;
42972;SDS011;28610;51.214;6.962;2023-02-15T08:48:47;38.37;;;18.03;;
42972;SDS011;28610;51.214;6.962;2023-02-15T08:51:33;35.60;;;19.33;;
42972;SDS011;28610;51.214;6.962;2023-02-15T08:54:20;35.03;;;18.33;;
42972;SDS011;28610;51.214;6.962;2023-02-15T08:57:06;36.10;;;17.37;;
42972;SDS011;28610;51.214;6.962;2023-02-15T08:59:54;36.53;;;18.13;;
42972;SDS011;28610;51.214;6.962;2023-02-15T09:02:39;43.20;;;20.23;;
42972;SDS011;28610;51.214;6.962;2023-02-15T09:05:25;31.07;;;16.43;;
42972;SDS011;28610;51.214;6.962;2023-02-15T09:08:10;48.50;;;21.33;;
42972;SDS011;28610;51.214;6.962;2023-02-15T09:11:04;33.83;;;17.47;;
42972;SDS011;28610;51.214;6.962;2023-02-15T09:13:51;34.70;;;17.27;;
42972;SDS011;28610;51.214;6.962;2023-02-15T09:16:39;28.83;;;16.17;;
42972;SDS011;28610;51.214;6.962;2023-02-15T09:19:25;29.63;;;15.30;;
42972;SDS011;28610;51.214;6.962;2023-02-15T09:22:10;30.67;;;16.03;;
42972;SDS011;28610;51.214;6.962;2023-02-15T09:24:56;33.03;;;17.17;;
42972;SDS011;28610;51.214;6.962;2023-02-15T09:27:41;32.87;;;16.77;;
42972;SDS011;28610;51.214;6.962;2023-02-15T09:30:27;30.40;;;15.83;;
42972;SDS011;28610;51.214;6.962;2023-02-15T09:33:14;29.60;;;16.40;;
42972;SDS011;28610;51.214;6.962;2023-02-15T09:35:59;31.27;;;16.37;;
42972;SDS011;28610;51.214;6.962;2023-02-15T09:38:45;31.77;;;15.47;;
42972;SDS011;28610;51.214;6.962;2023-02-15T09:41:46;30.27;;;15.60;;
42972;SDS011;28610;51.214;6.962;2023-02-15T09:44:38;27.70;;;15.47;;
42972;SDS011;28610;51.214;6.962;2023-02-15T09:47:34;28.03;;;14.60;;
42972;SDS011;28610;51.214;6.962;2023-02-15T09:50:25;34.00;;;16.33;;
42972;SDS011;28610;51.214;6.962;2023-02-15T09:53:20;29.50;;;15.63;;
42972;SDS011;28610;51.214;6.962;2023-02-15T09:56:14;28.13;;;15.57;;
42972;SDS011;28610;51.214;6.962;2023-02-15T09:59:01;31.73;;;15.83;;
42972;SDS011;28610;51.214;6.962;2023-02-15T10:01:52;28.63;;;15.27;;
42972;SDS011;28610;51.214;6.962;2023-02-15T10:04:44;30.83;;;15.73;;
42972;SDS011;28610;51.214;6.962;2023-02-15T10:07:38;30.13;;;15.80;;
42972;SDS011;28610;51.214;6.962;2023-02-15T10:10:30;30.03;;;15.93;;
42972;SDS011;28610;51.214;6.962;2023-02-15T10:13:23;31.67;;;15.80;;
42972;SDS011;28610;51.214;6.962;2023-02-15T10:16:14;28.73;;;14.97;;
42972;SDS011;28610;51.214;6.962;2023-02-15T10:19:04;29.33;;;16.10;;
42972;SDS011;28610;51.214;6.962;2023-02-15T10:21:56;26.07;;;14.77;;
42972;SDS011;28610;51.214;6.962;2023-02-15T10:24:47;28.90;;;15.67;;
42972;SDS011;28610;51.214;6.962;2023-02-15T10:27:38;28.40;;;15.23;;
42972;SDS011;28610;51.214;6.962;2023-02-15T10:30:27;29.50;;;14.43;;
42972;SDS011;28610;51.214;6.962;2023-02-15T10:33:20;26.80;;;14.27;;
42972;SDS011;28610;51.214;6.962;2023-02-15T10:36:11;27.90;;;14.40;;
42972;SDS011;28610;51.214;6.962;2023-02-15T10:39:05;27.20;;;14.37;;
42972;SDS011;28610;51.214;6.962;2023-02-15T10:41:56;24.47;;;14.60;;
42972;SDS011;28610;51.214;6.962;2023-02-15T10:44:50;25.80;;;14.50;;
42972;SDS011;28610;51.214;6.962;2023-02-15T10:47:43;24.93;;;14.10;;
42972;SDS011;28610;51.214;6.962;2023-02-15T10:50:34;26.97;;;14.03;;
42972;SDS011;28610;51.214;6.962;2023-02-15T10:56:25;26.97;;;14.47;;
42972;SDS011;28610;51.214;6.962;2023-02-15T10:59:18;30.17;;;13.97;;
42972;SDS011;28610;51.214;6.962;2023-02-15T11:02:10;28.33;;;14.17;;
42972;SDS011;28610;51.214;6.962;2023-02-15T11:05:00;25.57;;;14.10;;
42972;SDS011;28610;51.214;6.962;2023-02-15T11:07:48;27.30;;;14.57;;
42972;SDS011;28610;51.214;6.962;2023-02-15T11:10:37;26.50;;;13.77;;
42972;SDS011;28610;51.214;6.962;2023-02-15T11:13:25;26.70;;;14.67;;
42972;SDS011;28610;51.214;6.962;2023-02-15T11:16:14;25.53;;;13.70;;
42972;SDS011;28610;51.214;6.962;2023-02-15T11:19:01;26.07;;;14.03;;
42972;SDS011;28610;51.214;6.962;2023-02-15T11:21:50;27.43;;;14.13;;
42972;SDS011;28610;51.214;6.962;2023-02-15T11:24:39;26.33;;;13.60;;
42972;SDS011;28610;51.214;6.962;2023-02-15T11:27:26;25.10;;;13.47;;
42972;SDS011;28610;51.214;6.962;2023-02-15T11:30:13;26.97;;;13.83;;
42972;SDS011;28610;51.214;6.962;2023-02-15T11:33:00;25.97;;;13.97;;
42972;SDS011;28610;51.214;6.962;2023-02-15T11:35:48;26.80;;;13.73;;
42972;SDS011;28610;51.214;6.962;2023-02-15T11:38:36;25.63;;;14.17;;
42972;SDS011;28610;51.214;6.962;2023-02-15T11:41:23;24.80;;;13.30;;
42972;SDS011;28610;51.214;6.962;2023-02-15T11:44:11;27.37;;;14.63;;
42972;SDS011;28610;51.214;6.962;2023-02-15T11:47:00;27.40;;;13.90;;
42972;SDS011;28610;51.214;6.962;2023-02-15T11:49:47;26.47;;;14.03;;
42972;SDS011;28610;51.214;6.962;2023-02-15T11:52:33;25.90;;;13.63;;
42972;SDS011;28610;51.214;6.962;2023-02-15T11:55:20;25.17;;;13.60;;
42972;SDS011;28610;51.214;6.962;2023-02-15T11:58:09;29.37;;;14.60;;
42972;SDS011;28610;51.214;6.962;2023-02-15T12:01:00;26.87;;;13.97;;
42972;SDS011;28610;51.214;6.962;2023-02-15T12:03:48;26.80;;;13.90;;
42972;SDS011;28610;51.214;6.962;2023-02-15T12:06:37;26.03;;;13.67;;
42972;SDS011;28610;51.214;6.962;2023-02-15T12:09:25;26.30;;;14.03;;
42972;SDS011;28610;51.214;6.962;2023-02-15T12:12:22;25.50;;;14.00;;
42972;SDS011;28610;51.214;6.962;2023-02-15T12:15:08;27.60;;;13.77;;
42972;SDS011;28610;51.214;6.962;2023-02-15T12:17:53;25.47;;;13.23;;
42972;SDS011;28610;51.214;6.962;2023-02-15T12:20:39;23.87;;;13.17;;
42972;SDS011;28610;51.214;6.962;2023-02-15T12:23:26;25.13;;;13.47;;
42972;SDS011;28610;51.214;6.962;2023-02-15T12:26:13;25.23;;;13.20;;
42972;SDS011;28610;51.214;6.962;2023-02-15T12:29:01;28.20;;;14.00;;
42972;SDS011;28610;51.214;6.962;2023-02-15T12:31:51;25.70;;;13.43;;
42972;SDS011;28610;51.214;6.962;2023-02-15T12:34:37;25.07;;;13.10;;
42972;SDS011;28610;51.214;6.962;2023-02-15T12:37:25;23.80;;;13.03;;
42972;SDS011;28610;51.214;6.962;2023-02-15T12:40:23;25.13;;;12.90;;
42972;SDS011;28610;51.214;6.962;2023-02-15T12:43:12;29.07;;;14.13;;
42972;SDS011;28610;51.214;6.962;2023-02-15T12:46:13;26.30;;;13.47;;
42972;SDS011;28610;51.214;6.962;2023-02-15T12:49:06;28.70;;;14.43;;
42972;SDS011;28610;51.214;6.962;2023-02-15T12:51:53;29.17;;;13.63;;
42972;SDS011;28610;51.214;6.962;2023-02-15T12:54:40;24.97;;;13.23;;
42972;SDS011;28610;51.214;6.962;2023-02-15T12:57:30;27.07;;;14.40;;
42972;SDS011;28610;51.214;6.962;2023-02-15T13:00:26;25.33;;;13.27;;
42972;SDS011;28610;51.214;6.962;2023-02-15T13:03:16;28.60;;;14.80;;
42972;SDS011;28610;51.214;6.962;2023-02-15T13:06:02;27.20;;;13.70;;
42972;SDS011;28610;51.214;6.962;2023-02-15T13:08:51;28.47;;;13.70;;
42972;SDS011;28610;51.214;6.962;2023-02-15T13:11:37;24.47;;;12.90;;
42972;SDS011;28610;51.214;6.962;2023-02-15T13:14:28;26.90;;;12.87;;
42972;SDS011;28610;51.214;6.962;2023-02-15T13:17:15;26.77;;;13.13;;
42972;SDS011;28610;51.214;6.962;2023-02-15T13:20:02;30.83;;;13.97;;
42972;SDS011;28610;51.214;6.962;2023-02-15T13:22:50;34.13;;;17.30;;
42972;SDS011;28610;51.214;6.962;2023-02-15T13:25:37;26.73;;;13.83;;
42972;SDS011;28610;51.214;6.962;2023-02-15T13:28:26;26.20;;;13.43;;
42972;SDS011;28610;51.214;6.962;2023-02-15T13:31:15;25.00;;;12.70;;
42972;SDS011;28610;51.214;6.962;2023-02-15T13:34:02;26.00;;;13.17;;
42972;SDS011;28610;51.214;6.962;2023-02-15T13:36:50;24.33;;;12.70;;
42972;SDS011;28610;51.214;6.962;2023-02-15T13:39:37;26.73;;;13.10;;
42972;SDS011;28610;51.214;6.962;2023-02-15T13:42:26;26.97;;;13.53;;
42972;SDS011;28610;51.214;6.962;2023-02-15T13:45:20;24.80;;;12.70;;
42972;SDS011;28610;51.214;6.962;2023-02-15T13:48:11;24.33;;;12.23;;
42972;SDS011;28610;51.214;6.962;2023-02-15T13:51:02;24.57;;;12.90;;
42972;SDS011;28610;51.214;6.962;2023-02-15T13:53:57;25.07;;;12.33;;
42972;SDS011;28610;51.214;6.962;2023-02-15T13:56:47;27.90;;;12.37;;
42972;SDS011;28610;51.214;6.962;2023-02-15T13:59:39;25.67;;;12.20;;
42972;SDS011;28610;51.214;6.962;2023-02-15T14:02:34;25.00;;;13.30;;
42972;SDS011;28610;51.214;6.962;2023-02-15T14:05:36;24.03;;;11.57;;
42972;SDS011;28610;51.214;6.962;2023-02-15T14:08:31;24.13;;;12.33;;
42972;SDS011;28610;51.214;6.962;2023-02-15T14:11:21;25.13;;;12.13;;
42972;SDS011;28610;51.214;6.962;2023-02-15T14:17:25;22.27;;;11.87;;
42972;SDS011;28610;51.214;6.962;2023-02-15T14:20:15;23.60;;;12.07;;
42972;SDS011;28610;51.214;6.962;2023-02-15T14:23:04;28.00;;;13.00;;
42972;SDS011;28610;51.214;6.962;2023-02-15T14:25:55;26.40;;;12.77;;
42972;SDS011;28610;51.214;6.962;2023-02-15T14:28:43;24.63;;;12.17;;
42972;SDS011;28610;51.214;6.962;2023-02-15T14:31:33;24.50;;;12.60;;
42972;SDS011;28610;51.214;6.962;2023-02-15T14:34:21;25.07;;;12.90;;
42972;SDS011;28610;51.214;6.962;2023-02-15T14:37:08;26.27;;;12.67;;
42972;SDS011;28610;51.214;6.962;2023-02-15T14:39:57;27.90;;;12.83;;
42972;SDS011;28610;51.214;6.962;2023-02-15T14:43:06;28.10;;;13.63;;
42972;SDS011;28610;51.214;6.962;2023-02-15T14:45:54;26.83;;;12.90;;
42972;SDS011;28610;51.214;6.962;2023-02-15T14:48:41;26.10;;;13.13;;
42972;SDS011;28610;51.214;6.962;2023-02-15T14:57:39;29.63;;;13.23;;
42972;SDS011;28610;51.214;6.962;2023-02-15T15:00:30;27.93;;;13.13;;
42972;SDS011;28610;51.214;6.962;2023-02-15T15:03:20;28.20;;;12.80;;
42972;SDS011;28610;51.214;6.962;2023-02-15T15:06:06;26.97;;;12.80;;
42972;SDS011;28610;51.214;6.962;2023-02-15T15:08:53;26.93;;;12.90;;
42972;SDS011;28610;51.214;6.962;2023-02-15T15:11:44;25.20;;;12.60;;
42972;SDS011;28610;51.214;6.962;2023-02-15T15:14:39;23.73;;;12.53;;
42972;SDS011;28610;51.214;6.962;2023-02-15T15:20:40;26.70;;;12.73;;
42972;SDS011;28610;51.214;6.962;2023-02-15T15:23:38;28.67;;;13.40;;
42972;SDS011;28610;51.214;6.962;2023-02-15T15:26:25;26.53;;;12.87;;
42972;SDS011;28610;51.214;6.962;2023-02-15T15:29:11;27.13;;;13.23;;
42972;SDS011;28610;51.214;6.962;2023-02-15T15:31:58;29.87;;;13.47;;
42972;SDS011;28610;51.214;6.962;2023-02-15T15:35:00;26.57;;;12.73;;
42972;SDS011;28610;51.214;6.962;2023-02-15T15:37:53;26.37;;;13.83;;
42972;SDS011;28610;51.214;6.962;2023-02-15T15:43:54;28.03;;;13.00;;
42972;SDS011;28610;51.214;6.962;2023-02-15T15:46:50;35.00;;;14.23;;
42972;SDS011;28610;51.214;6.962;2023-02-15T15:49:41;27.13;;;13.23;;
42972;SDS011;28610;51.214;6.962;2023-02-15T15:52:27;27.27;;;13.27;;
42972;SDS011;28610;51.214;6.962;2023-02-15T15:55:16;30.43;;;13.87;;
42972;SDS011;28610;51.214;6.962;2023-02-15T15:58:03;27.17;;;13.47;;
42972;SDS011;28610;51.214;6.962;2023-02-15T16:00:50;27.03;;;13.73;;
42972;SDS011;28610;51.214;6.962;2023-02-15T16:03:37;30.63;;;13.83;;
42972;SDS011;28610;51.214;6.962;2023-02-15T16:06:31;27.70;;;14.27;;
42972;SDS011;28610;51.214;6.962;2023-02-15T16:09:18;29.90;;;13.97;;
42972;SDS011;28610;51.214;6.962;2023-02-15T16:12:04;29.97;;;13.90;;
42972;SDS011;28610;51.214;6.962;2023-02-15T16:15:00;29.63;;;13.67;;
42972;SDS011;28610;51.214;6.962;2023-02-15T16:17:47;26.60;;;13.47;;
42972;SDS011;28610;51.214;6.962;2023-02-15T16:20:35;28.30;;;14.17;;
42972;SDS011;28610;51.214;6.962;2023-02-15T16:26:32;26.13;;;13.97;;
42972;SDS011;28610;51.214;6.962;2023-02-15T16:29:26;29.43;;;14.00;;
42972;SDS011;28610;51.214;6.962;2023-02-15T16:32:16;33.40;;;15.53;;
42972;SDS011;28610;51.214;6.962;2023-02-15T16:35:02;27.77;;;14.03;;
42972;SDS011;28610;51.214;6.962;2023-02-15T16:37:48;30.63;;;16.00;;
42972;SDS011;28610;51.214;6.962;2023-02-15T16:40:46;30.50;;;14.17;;
42972;SDS011;28610;51.214;6.962;2023-02-15T16:43:34;29.57;;;14.33;;
42972;SDS011;28610;51.214;6.962;2023-02-15T16:46:20;29.77;;;14.87;;
42972;SDS011;28610;51.214;6.962;2023-02-15T16:49:12;30.10;;;14.43;;
42972;SDS011;28610;51.214;6.962;2023-02-15T16:52:00;31.17;;;15.17;;
42972;SDS011;28610;51.214;6.962;2023-02-15T16:54:52;31.43;;;14.97;;